Time;durP1;ratioP1;P1;durP2;ratioP2;P2;SDS_P1;SDS_P2;PMS_P1;PMS_P2;Temp;Humidity;BMP_temperature;BMP_pressure;BME280_temperature;BME280_humidity;BME280_pressure;Samples;Min_cycle;Max_cycle;Signal;HPM_P1;HPM_P2
2022/06/01 00:00:44;;;;;;;7.53;3.10;;;;;;;19.36;62.91;98616.91;5092228;28;20024;-48
2022/06/01 00:03:11;;;;;;;7.35;3.85;;;;;;;19.28;63.24;98614.75;5092225;28;20039;-48
2022/06/01 00:05:36;;;;;;;8.73;3.42;;;;;;;19.15;63.47;98612.53;5092099;28;20049;-48
2022/06/01 00:08:03;;;;;;;6.68;3.90;;;;;;;18.96;64.13;98617.50;5093382;28;20028;-48
2022/06/01 00:10:33;;;;;;;14.20;3.65;;;;;;;18.75;65.35;98620.00;5092038;28;20016;-48
2022/06/01 00:13:00;;;;;;;10.93;3.80;;;;;;;18.71;65.41;98618.91;5093317;28;20099;-47
2022/06/01 00:15:27;;;;;;;11.18;3.75;;;;;;;18.79;65.36;98614.16;5093251;28;20497;-48
2022/06/01 00:17:53;;;;;;;10.93;3.35;;;;;;;18.91;65.16;98620.13;5091797;28;20032;-48
2022/06/01 00:20:19;;;;;;;14.43;3.97;;;;;;;19.03;64.71;98622.59;5093132;28;20057;-47
2022/06/01 00:22:45;;;;;;;12.05;3.60;;;;;;;19.14;64.73;98624.25;5092031;28;20062;-48
2022/06/01 00:25:14;;;;;;;14.95;3.42;;;;;;;19.27;64.60;98620.31;5091712;28;20047;-48
2022/06/01 00:27:39;;;;;;;18.40;3.97;;;;;;;19.37;64.02;98625.69;5093247;28;20031;-48
2022/06/01 00:30:08;;;;;;;12.52;3.67;;;;;;;19.42;63.88;98627.56;5091606;28;20388;-48
2022/06/01 00:32:34;;;;;;;13.77;3.80;;;;;;;19.46;63.80;98626.81;5092933;28;20039;-48
2022/06/01 00:35:01;;;;;;;11.80;3.35;;;;;;;19.54;63.50;98630.84;5092666;28;20473;-48
2022/06/01 00:37:27;;;;;;;12.90;3.45;;;;;;;19.71;63.28;98623.47;5091425;28;20077;-48
2022/06/01 00:39:53;;;;;;;7.72;3.42;;;;;;;19.81;62.96;98619.25;5092772;28;20028;-48
2022/06/01 00:42:22;;;;;;;8.07;4.28;;;;;;;19.85;62.52;98617.66;5091402;28;20371;-48
2022/06/01 00:44:49;;;;;;;9.25;3.45;;;;;;;19.84;62.51;98621.38;5092652;28;20405;-48
2022/06/01 00:47:16;;;;;;;8.60;3.70;;;;;;;19.86;62.29;98624.56;5092600;28;20028;-48
2022/06/01 00:50:05;;;;;;;9.43;3.67;;;;;;;19.77;62.32;98626.94;5092558;28;20035;-48
2022/06/01 00:52:35;;;;;;;10.80;3.88;;;;;;;19.61;61.99;98627.94;5092062;28;20075;-48
2022/06/01 00:55:26;;;;;;;8.18;3.42;;;;;;;19.46;62.73;98634.00;5092489;28;20024;-48
2022/06/01 00:57:57;;;;;;;6.50;3.03;;;;;;;19.37;63.14;98623.03;5092417;28;20024;-48
2022/06/01 01:00:27;;;;;;;6.68;3.45;;;;;;;19.34;63.24;98629.69;5091182;28;20063;-48
2022/06/01 01:02:55;;;;;;;4.22;3.13;;;;;;;19.38;63.26;98621.16;5092345;28;20066;-48
2022/06/01 01:05:22;;;;;;;5.40;3.35;;;;;;;19.35;63.39;98620.63;5091043;28;20020;-48
2022/06/01 01:07:51;;;;;;;11.57;3.75;;;;;;;19.35;63.48;98620.63;5092306;28;20028;-47
2022/06/01 01:10:17;;;;;;;18.30;4.75;;;;;;;19.38;63.34;98619.31;5092263;28;20457;-48
2022/06/01 01:12:56;;;;;;;14.00;4.07;;;;;;;19.53;63.24;98616.72;5092233;28;20032;-48
2022/06/01 01:15:27;;;;;;;6.97;3.70;;;;;;;19.57;63.08;98617.00;5090986;28;20031;-48
2022/06/01 01:17:54;;;;;;;8.50;4.05;;;;;;;19.54;62.74;98610.34;5092363;28;20398;-48
2022/06/01 01:20:20;;;;;;;10.63;3.33;;;;;;;19.51;62.85;98610.06;5092031;28;20024;-48
2022/06/01 01:22:52;;;;;;;6.40;4.05;;;;;;;19.38;62.79;98615.84;5090789;28;20016;-48
2022/06/01 01:25:44;;;;;;;8.45;4.30;;;;;;;19.10;63.35;98613.31;5092065;28;20036;-48
2022/06/01 01:28:10;;;;;;;5.30;3.95;;;;;;;18.88;63.94;98613.47;5089089;28;20032;-48
2022/06/01 01:30:41;;;;;;;10.75;4.47;;;;;;;18.85;64.63;98605.97;5090649;28;20024;-47
2022/06/01 01:33:07;;;;;;;12.23;4.70;;;;;;;18.88;64.57;98602.03;5091734;28;20020;-48
2022/06/01 01:35:33;;;;;;;8.20;4.88;;;;;;;18.89;64.39;98607.06;5090370;28;20054;-48
2022/06/01 01:38:03;;;;;;;10.32;4.15;;;;;;;18.73;64.66;98608.00;5091877;28;20024;-48
2022/06/01 01:40:28;;;;;;;10.85;4.10;;;;;;;18.67;64.87;98604.53;5074002;28;20020;-48
2022/06/01 01:42:57;;;;;;;10.85;4.82;;;;;;;18.67;64.96;98603.69;5091861;28;20511;-48
2022/06/01 01:45:32;;;;;;;8.90;4.43;;;;;;;18.58;65.15;98605.25;5091866;28;20505;-48
2022/06/01 01:47:58;;;;;;;10.52;4.30;;;;;;;18.49;65.26;98605.72;5090570;28;20453;-47
2022/06/01 01:50:25;;;;;;;7.28;4.55;;;;;;;18.30;65.49;98607.94;5091802;28;20119;-48
2022/06/01 01:52:51;;;;;;;9.50;3.75;;;;;;;18.13;66.43;98608.06;5091737;28;20020;-48
2022/06/01 01:55:23;;;;;;;17.80;4.38;;;;;;;18.06;66.69;98604.00;5090443;28;20081;-48
2022/06/01 01:58:11;;;;;;;7.68;3.30;;;;;;;18.08;66.83;98594.72;5091729;28;20024;-48
2022/06/01 02:00:42;;;;;;;6.82;3.80;;;;;;;18.00;66.96;98594.38;5090393;28;20024;-48
2022/06/01 02:03:16;;;;;;;9.45;3.53;;;;;;;17.81;67.65;98593.88;5091753;28;20435;-48
2022/06/01 02:06:05;;;;;;;11.93;3.83;;;;;;;17.89;68.13;98586.31;5090383;28;20032;-48
2022/06/01 02:08:48;;;;;;;7.13;3.58;;;;;;;18.00;67.36;98583.75;5091738;28;20032;-47
2022/06/01 02:14:22;;;;;;;10.40;4.28;;;;;;;17.33;68.83;98581.16;5091653;28;20059;-48
2022/06/01 02:17:02;;;;;;;8.85;4.70;;;;;;;17.13;69.85;98581.69;5091568;28;20027;-48
2022/06/01 02:19:36;;;;;;;8.20;4.63;;;;;;;17.16;70.16;98583.06;5091620;28;20024;-48
2022/06/01 02:22:02;;;;;;;11.60;4.72;;;;;;;17.33;69.68;98585.66;5091586;28;20024;-48
2022/06/01 02:24:29;;;;;;;12.15;6.07;;;;;;;17.43;69.28;98585.00;5090197;28;20021;-48
2022/06/01 02:26:56;;;;;;;9.98;4.93;;;;;;;17.41;69.23;98587.09;5091758;28;20028;-48
2022/06/01 02:29:31;;;;;;;10.00;6.53;;;;;;;17.39;69.43;98587.34;5090119;28;20035;-48
2022/06/01 02:31:58;;;;;;;15.70;5.10;;;;;;;17.44;69.27;98592.69;5090175;28;20166;-48
2022/06/01 02:34:28;;;;;;;10.20;5.85;;;;;;;17.43;69.33;98596.41;5091283;28;20052;-48
2022/06/01 02:36:59;;;;;;;17.80;7.53;;;;;;;17.52;69.18;98583.50;5091524;28;20106;-48
2022/06/01 02:39:27;;;;;;;8.93;5.45;;;;;;;17.53;68.88;98579.81;5091365;28;20028;-48
2022/06/01 02:42:28;;;;;;;8.23;4.93;;;;;;;17.49;68.79;98576.84;5091608;28;20048;-48
2022/06/01 02:44:59;;;;;;;15.00;5.65;;;;;;;17.28;69.23;98569.69;5091449;28;20044;-48
2022/06/01 02:47:26;;;;;;;12.63;5.25;;;;;;;17.13;69.80;98571.09;5094757;28;20043;-48
2022/06/01 02:49:53;;;;;;;14.00;4.30;;;;;;;17.12;70.45;98572.16;5095030;28;20032;-48
2022/06/01 02:52:22;;;;;;;12.10;5.85;;;;;;;17.37;69.52;98574.31;5093640;28;20480;-48
2022/06/01 02:54:47;;;;;;;10.60;4.90;;;;;;;17.54;69.13;98571.56;5093524;28;20027;-48
2022/06/01 02:57:14;;;;;;;8.02;4.55;;;;;;;17.86;68.47;98570.88;5093420;28;20028;-48
2022/06/01 02:59:41;;;;;;;12.15;4.60;;;;;;;17.87;67.20;98567.19;5094644;28;20021;-48
2022/06/01 03:02:09;;;;;;;12.43;4.88;;;;;;;17.74;67.27;98568.34;5093405;28;20020;-48
2022/06/01 03:04:40;;;;;;;13.70;5.32;;;;;;;17.61;67.75;98579.34;5094635;28;20095;-47
2022/06/01 03:07:06;;;;;;;10.75;4.88;;;;;;;17.47;67.93;98567.53;5094625;28;20039;-48
2022/06/01 03:09:32;;;;;;;10.88;5.60;;;;;;;17.31;67.76;98559.38;5094573;28;20501;-47
2022/06/01 03:11:59;;;;;;;10.60;6.10;;;;;;;17.08;68.94;98557.78;5094486;28;20028;-49
2022/06/01 03:14:25;;;;;;;7.95;5.90;;;;;;;16.87;69.25;98567.28;5093095;28;20036;-50
2022/06/01 03:16:51;;;;;;;9.68;5.85;;;;;;;16.72;70.47;98565.22;5093055;28;20444;-49
2022/06/01 03:19:17;;;;;;;13.02;6.60;;;;;;;16.70;70.49;98556.72;5093044;28;20027;-49
2022/06/01 03:21:43;;;;;;;9.52;6.10;;;;;;;16.71;71.04;98560.16;5092951;28;20020;-50
2022/06/01 03:24:09;;;;;;;9.10;5.93;;;;;;;16.78;70.70;98558.13;5094296;28;20444;-50
2022/06/01 03:26:36;;;;;;;7.18;5.70;;;;;;;17.01;70.40;98551.06;5094160;28;20099;-49
2022/06/01 03:29:03;;;;;;;7.13;5.40;;;;;;;17.16;69.55;98548.56;5092873;28;20024;-50
2022/06/01 03:31:29;;;;;;;11.35;6.07;;;;;;;17.22;68.81;98557.41;5094116;28;20020;-50
2022/06/01 03:33:55;;;;;;;10.63;5.95;;;;;;;17.18;68.73;98554.44;5092778;28;20051;-50
2022/06/01 03:36:21;;;;;;;17.25;6.40;;;;;;;17.23;68.30;98554.50;5092657;28;20024;-49
2022/06/01 03:38:46;;;;;;;11.25;5.70;;;;;;;17.02;69.00;98557.94;5093987;28;20122;-49
2022/06/01 03:41:12;;;;;;;11.55;6.07;;;;;;;16.93;69.33;98563.66;5093970;28;20062;-50
2022/06/01 03:46:22;;;;;;;13.32;6.75;;;;;;;16.99;70.04;98561.91;5094131;28;20081;-49
2022/06/01 03:48:49;;;;;;;10.18;5.53;;;;;;;17.06;69.32;98564.34;5093826;28;20028;-50
2022/06/01 03:51:15;;;;;;;9.60;5.55;;;;;;;16.94;68.94;98567.94;5093737;28;20021;-49
2022/06/01 03:53:42;;;;;;;14.38;5.07;;;;;;;16.70;69.15;98574.44;5093726;28;20020;-50
2022/06/01 03:56:09;;;;;;;10.15;5.70;;;;;;;16.59;69.87;98570.84;5092162;28;20024;-50
2022/06/01 03:58:36;;;;;;;8.50;5.55;;;;;;;16.77;69.94;98573.22;5092201;28;20038;-50
2022/06/01 04:01:06;;;;;;;12.50;5.60;;;;;;;16.83;69.06;98566.19;5093556;28;20061;-50
2022/06/01 04:03:32;;;;;;;9.82;6.03;;;;;;;16.78;68.74;98574.03;5093512;28;20028;-49
2022/06/01 04:05:58;;;;;;;12.18;6.53;;;;;;;16.62;69.37;98570.38;5093492;28;20489;-50
2022/06/01 04:08:24;;;;;;;10.20;6.88;;;;;;;16.48;70.04;98569.06;5093389;28;20028;-49
2022/06/01 04:10:49;;;;;;;9.00;6.05;;;;;;;16.51;70.09;98574.69;5092007;28;20504;-50
2022/06/01 04:13:16;;;;;;;9.55;7.65;;;;;;;16.58;70.25;98572.69;5092040;28;20024;-49
2022/06/01 04:15:42;;;;;;;9.50;8.48;;;;;;;16.72;70.06;98569.69;5093219;28;20089;-49
2022/06/01 04:18:08;;;;;;;10.20;8.77;;;;;;;16.87;70.23;98566.50;5093147;28;20024;-49
2022/06/01 04:20:34;;;;;;;15.40;10.95;;;;;;;17.11;69.12;98559.13;5091825;28;20024;-50
2022/06/01 04:23:01;;;;;;;14.15;10.02;;;;;;;17.12;68.95;98563.38;5093162;28;20031;-48
2022/06/01 04:25:29;;;;;;;14.82;10.27;;;;;;;17.10;68.91;98563.66;5093039;28;20031;-48
2022/06/01 04:27:54;;;;;;;15.70;10.55;;;;;;;17.06;69.30;98565.16;5093050;28;20032;-48
2022/06/01 04:30:21;;;;;;;14.70;9.93;;;;;;;17.21;69.20;98572.53;5091607;28;20595;-48
2022/06/01 04:32:51;;;;;;;16.50;10.07;;;;;;;17.54;68.36;98570.78;5091668;28;20028;-48
2022/06/01 04:35:19;;;;;;;11.98;9.95;;;;;;;17.88;67.92;98578.59;5091365;28;20568;-47
2022/06/01 04:37:45;;;;;;;14.65;10.38;;;;;;;18.23;67.47;98582.63;5092723;28;20558;-48
2022/06/01 04:40:13;;;;;;;22.55;16.70;;;;;;;18.32;67.67;98579.25;5092808;28;20028;-48
2022/06/01 04:42:40;;;;;;;18.88;10.85;;;;;;;18.47;67.07;98572.47;5092764;28;20016;-48
2022/06/01 04:45:08;;;;;;;16.23;10.52;;;;;;;18.52;66.57;98573.31;5092958;28;20051;-48
2022/06/01 04:47:35;;;;;;;20.65;14.05;;;;;;;18.66;66.65;98578.19;5092690;28;20020;-48
2022/06/01 04:50:01;;;;;;;18.63;11.00;;;;;;;18.72;65.16;98574.50;5091338;28;20639;-48
2022/06/01 04:52:27;;;;;;;17.33;11.40;;;;;;;18.66;65.04;98576.31;5091280;28;20016;-49
2022/06/01 04:54:52;;;;;;;18.10;11.75;;;;;;;18.54;65.06;98575.72;5091264;28;20024;-49
2022/06/01 04:57:18;;;;;;;36.28;18.52;;;;;;;18.39;65.77;98572.94;5091053;28;20016;-49
2022/06/01 04:59:44;;;;;;;22.08;13.70;;;;;;;18.39;65.96;98573.75;5092786;28;20055;-50
2022/06/01 05:02:09;;;;;;;16.85;10.57;;;;;;;18.52;64.71;98573.31;5091088;28;20504;-50
2022/06/01 05:04:35;;;;;;;18.05;11.02;;;;;;;18.44;64.36;98576.44;5091340;28;20024;-50
2022/06/01 05:07:02;;;;;;;15.95;11.23;;;;;;;18.34;64.85;98579.00;5091001;28;20028;-48
2022/06/01 05:09:28;;;;;;;18.58;12.80;;;;;;;18.53;65.25;98588.22;5091703;28;20020;-48
2022/06/01 05:11:54;;;;;;;17.92;10.82;;;;;;;18.96;63.99;98586.38;5092546;28;20390;-48
2022/06/01 05:14:20;;;;;;;17.23;10.77;;;;;;;19.14;62.83;98593.13;5092462;28;20043;-48
2022/06/01 05:16:45;;;;;;;16.00;11.70;;;;;;;19.19;62.70;98592.34;5092136;28;20038;-48
2022/06/01 05:19:11;;;;;;;17.45;11.45;;;;;;;19.13;62.30;98596.03;5092203;28;20031;-48
2022/06/01 05:21:37;;;;;;;28.02;16.50;;;;;;;19.21;62.56;98597.41;5090758;28;20032;-48
2022/06/01 05:24:03;;;;;;;14.70;11.63;;;;;;;19.80;61.11;98606.97;5092076;28;20481;-48
2022/06/01 05:26:29;;;;;;;19.10;13.25;;;;;;;21.19;58.01;98592.59;5092042;28;20035;-48
2022/06/01 05:28:54;;;;;;;13.38;9.93;;;;;;;22.96;54.01;98578.56;5092037;28;20024;-48
2022/06/01 05:31:20;;;;;;;14.98;8.77;;;;;;;24.95;48.83;98582.19;5092055;28;20095;-48
2022/06/01 05:33:48;;;;;;;14.40;8.65;;;;;;;26.44;44.95;98571.69;5091785;28;20131;-48
2022/06/01 05:36:16;;;;;;;13.73;8.68;;;;;;;27.69;41.72;98566.97;5091840;28;20058;-48
2022/06/01 05:38:42;;;;;;;8.73;7.80;;;;;;;28.23;40.44;98569.34;5091919;28;20025;-49
2022/06/01 05:41:08;;;;;;;10.73;7.45;;;;;;;28.50;38.40;98564.72;5091854;28;20497;-48
2022/06/01 05:43:35;;;;;;;12.43;7.75;;;;;;;28.56;37.98;98565.34;5090569;28;20417;-48
2022/06/01 05:46:04;;;;;;;15.30;6.80;;;;;;;28.51;38.46;98568.19;5092095;28;20417;-49
2022/06/01 05:48:30;;;;;;;11.35;6.47;;;;;;;29.31;37.02;98560.25;5091844;28;20027;-49
2022/06/01 05:50:56;;;;;;;11.13;7.13;;;;;;;29.91;36.25;98565.56;5091819;28;20023;-49
2022/06/01 05:53:22;;;;;;;8.63;6.30;;;;;;;30.79;34.78;98563.59;5090493;28;20115;-50
2022/06/01 05:55:48;;;;;;;13.40;6.88;;;;;;;31.15;34.22;98567.44;5092039;28;20035;-49
2022/06/01 05:58:20;;;;;;;12.60;5.93;;;;;;;29.89;35.43;98570.53;5091669;28;20040;-50
2022/06/01 06:00:48;;;;;;;11.70;5.80;;;;;;;28.35;37.33;98575.97;5091637;28;20016;-51
2022/06/01 06:03:15;;;;;;;10.73;6.03;;;;;;;26.87;40.62;98573.88;5091667;28;20062;-51
2022/06/01 06:08:26;;;;;;;13.00;6.97;;;;;;;25.36;43.78;98586.78;5091969;28;20034;-50
2022/06/01 06:10:52;;;;;;;7.10;5.78;;;;;;;26.02;42.72;98579.19;5091611;28;20770;-48
2022/06/01 06:13:18;;;;;;;11.98;6.45;;;;;;;27.39;39.89;98589.44;5090280;28;20016;-48
2022/06/01 06:15:44;;;;;;;10.15;6.25;;;;;;;28.78;37.64;98589.41;5091555;28;20577;-48
2022/06/01 06:18:11;;;;;;;15.10;5.75;;;;;;;30.01;35.66;98584.88;5091503;28;20073;-48
2022/06/01 06:20:39;;;;;;;11.90;5.55;;;;;;;30.74;34.34;98571.91;5092237;28;20035;-49
2022/06/01 06:23:04;;;;;;;23.20;6.53;;;;;;;32.02;33.09;98566.16;5095461;28;20024;-50
2022/06/01 06:25:30;;;;;;;10.90;5.70;;;;;;;33.19;31.17;98570.31;5094068;28;20093;-49
2022/06/01 06:27:56;;;;;;;13.88;6.68;;;;;;;33.42;32.01;98572.34;5095412;28;20074;-49
2022/06/01 06:30:22;;;;;;;10.35;5.10;;;;;;;33.65;29.78;98577.16;5095318;28;20031;-49
2022/06/01 06:32:47;;;;;;;11.70;4.80;;;;;;;33.32;30.57;98567.47;5095307;28;20493;-49
2022/06/01 06:35:13;;;;;;;8.20;3.25;;;;;;;33.66;29.46;98565.09;5095041;28;20044;-50
2022/06/01 06:37:42;;;;;;;11.05;4.72;;;;;;;33.77;29.30;98582.47;5095122;28;20058;-49
2022/06/01 06:40:08;;;;;;;13.00;4.68;;;;;;;32.80;31.22;98583.75;5095129;28;20016;-49
2022/06/01 06:42:34;;;;;;;14.93;5.07;;;;;;;31.49;33.55;98589.78;5095056;28;20028;-50
2022/06/01 06:45:00;;;;;;;11.85;4.55;;;;;;;30.99;33.84;98592.53;5095063;28;20020;-49
2022/06/01 06:47:27;;;;;;;8.93;3.33;;;;;;;30.66;33.73;98592.56;5094939;28;20038;-50
2022/06/01 06:49:52;;;;;;;11.27;3.70;;;;;;;30.44;34.39;98596.47;5094969;28;20028;-48
2022/06/01 06:52:18;;;;;;;12.43;3.90;;;;;;;30.03;34.47;98607.00;5094846;28;20020;-50
2022/06/01 06:54:44;;;;;;;13.02;4.07;;;;;;;29.87;34.63;98612.22;5094845;28;20036;-49
2022/06/01 06:57:10;;;;;;;16.63;4.13;;;;;;;30.61;33.41;98603.63;5094795;28;20481;-49
2022/06/01 06:59:36;;;;;;;10.43;3.78;;;;;;;30.26;34.08;98602.03;5094754;28;20032;-50
2022/06/01 07:02:03;;;;;;;17.52;4.18;;;;;;;29.46;35.32;98608.34;5094636;28;20131;-49
2022/06/01 07:04:29;;;;;;;10.43;3.45;;;;;;;30.31;34.41;98601.06;5094730;28;20020;-49
2022/06/01 07:06:54;;;;;;;16.60;4.72;;;;;;;31.29;32.97;98605.03;5094647;28;20371;-49
2022/06/01 07:09:20;;;;;;;26.20;4.80;;;;;;;32.43;30.91;98623.91;5094583;28;20024;-49
2022/06/01 07:11:46;;;;;;;28.83;3.95;;;;;;;32.66;30.94;98636.94;5093248;28;20020;-50
2022/06/01 07:14:11;;;;;;;19.02;5.13;;;;;;;34.29;29.27;98630.22;5094535;28;20019;-50
2022/06/01 07:16:38;;;;;;;31.80;5.20;;;;;;;34.50;28.93;98631.75;5094379;28;20129;-50
2022/06/01 07:19:06;;;;;;;25.23;4.78;;;;;;;34.35;29.50;98645.13;5094365;28;20017;-50
2022/06/01 07:21:36;;;;;;;18.42;4.75;;;;;;;34.12;29.06;98660.56;5094308;28;20027;-50
2022/06/01 07:24:04;;;;;;;16.65;4.50;;;;;;;33.04;30.32;98658.91;5094349;28;20020;-50
2022/06/01 07:26:37;;;;;;;23.77;5.25;;;;;;;32.16;31.74;98661.59;5094227;28;20149;-51
2022/06/01 07:29:07;;;;;;;21.73;5.65;;;;;;;31.76;32.82;98667.75;5094352;28;20028;-49
2022/06/01 07:31:34;;;;;;;20.75;5.00;;;;;;;31.47;33.33;98671.50;5092347;28;20054;-49
2022/06/01 07:33:59;;;;;;;23.67;4.47;;;;;;;31.01;34.02;98663.44;5092649;28;20051;-51
2022/06/01 07:36:27;;;;;;;23.88;5.05;;;;;;;30.47;34.83;98671.63;5092659;28;20024;-49
2022/06/01 07:44:23;;;;;;;17.05;4.38;;;;;;;29.91;36.16;98688.13;5094000;28;20028;-50
2022/06/01 07:46:50;;;;;;;23.50;5.38;;;;;;;29.85;36.09;98690.22;5093924;28;20027;-51
2022/06/01 07:49:16;;;;;;;25.30;4.85;;;;;;;29.71;36.81;98683.44;5092550;28;20020;-49
2022/06/01 07:51:42;;;;;;;10.25;4.40;;;;;;;29.65;36.68;98675.50;5093803;28;20457;-50
2022/06/01 07:54:09;;;;;;;10.15;4.70;;;;;;;29.51;37.02;98666.06;5092439;28;20020;-50
2022/06/01 07:56:36;;;;;;;10.60;4.85;;;;;;;29.28;37.16;98659.00;5093514;28;20081;-51
2022/06/01 07:59:02;;;;;;;12.70;5.18;;;;;;;29.33;37.31;98666.13;5093699;28;20072;-51
2022/06/01 08:01:27;;;;;;;8.98;4.93;;;;;;;29.22;37.77;98664.94;5093533;28;20494;-51
2022/06/01 08:03:59;;;;;;;9.90;4.88;;;;;;;28.91;38.50;98665.16;5093603;28;20031;-49
2022/06/01 08:06:26;;;;;;;7.88;5.60;;;;;;;28.56;39.33;98676.03;5093489;28;20035;-51
2022/06/01 08:08:53;;;;;;;15.90;5.97;;;;;;;28.06;39.81;98671.88;5093480;28;20028;-49
2022/06/01 08:11:18;;;;;;;13.35;5.55;;;;;;;27.62;40.82;98666.38;5093381;28;20028;-49
2022/06/01 08:13:44;;;;;;;7.78;5.93;;;;;;;27.27;41.63;98658.19;5093343;28;20401;-49
2022/06/01 08:16:10;;;;;;;12.88;6.22;;;;;;;26.94;42.60;98651.50;5093239;28;20370;-49
2022/06/01 08:18:36;;;;;;;20.50;6.90;;;;;;;26.51;43.55;98650.91;5091962;28;20411;-49
2022/06/01 08:21:03;;;;;;;17.42;8.98;;;;;;;26.18;44.70;98658.44;5093202;28;20020;-49
2022/06/01 08:23:32;;;;;;;13.82;7.95;;;;;;;25.89;45.62;98670.31;5093187;28;20445;-51
2022/06/01 08:25:58;;;;;;;10.77;7.53;;;;;;;25.57;46.66;98667.78;5093079;28;20051;-50
2022/06/01 08:28:25;;;;;;;14.35;6.35;;;;;;;25.15;48.57;98667.72;5093063;28;20035;-49
2022/06/01 08:30:52;;;;;;;9.52;6.72;;;;;;;24.81;49.68;98674.25;5091801;28;20502;-50
2022/06/01 08:33:20;;;;;;;13.93;6.32;;;;;;;24.57;50.39;98670.88;5091364;28;20071;-51
2022/06/01 08:35:48;;;;;;;15.18;6.68;;;;;;;24.36;50.88;98662.31;5093001;28;20028;-50
2022/06/01 08:38:15;;;;;;;16.63;9.30;;;;;;;24.38;50.88;98660.94;5092784;28;20399;-50
2022/06/01 08:41:13;;;;;;;18.40;8.18;;;;;;;24.70;50.71;98660.19;5092715;28;20112;-50
2022/06/01 08:43:45;;;;;;;14.30;7.93;;;;;;;25.25;52.89;98654.16;5091956;28;20028;-50
2022/06/01 08:46:12;;;;;;;12.10;7.35;;;;;;;25.63;51.65;98661.19;5092782;28;20121;-48
2022/06/01 08:48:43;;;;;;;14.15;6.00;;;;;;;25.66;49.63;98657.91;5092743;28;20022;-48
2022/06/01 08:51:09;;;;;;;10.82;6.90;;;;;;;25.63;49.55;98661.97;5092636;28;20027;-50
2022/06/01 08:53:35;;;;;;;14.13;6.50;;;;;;;25.76;48.90;98654.22;5092565;28;20524;-49
2022/06/01 08:56:23;;;;;;;12.38;6.00;;;;;;;26.15;47.67;98655.56;5091148;28;20024;-50
2022/06/01 08:58:55;;;;;;;12.07;6.63;;;;;;;26.78;46.77;98654.59;5092584;28;20410;-50
2022/06/01 09:01:32;;;;;;;14.68;5.45;;;;;;;27.81;44.38;98641.84;5092432;28;20032;-50
2022/06/01 09:04:25;;;;;;;10.90;5.40;;;;;;;29.17;42.00;98640.78;5092494;28;20031;-49
2022/06/01 09:07:29;;;;;;;15.82;5.38;;;;;;;30.49;39.23;98652.34;5091302;28;20084;-49
2022/06/01 09:10:13;;;;;;;12.43;5.57;;;;;;;30.95;37.91;98664.81;5060536;28;20390;-49
2022/06/01 09:12:41;;;;;;;12.50;5.57;;;;;;;30.67;37.86;98667.31;5092378;28;20085;-49
2022/06/01 09:15:29;;;;;;;8.43;4.82;;;;;;;30.12;38.97;98669.16;5092248;28;20504;-49
2022/06/01 09:18:00;;;;;;;12.40;5.07;;;;;;;30.06;39.06;98678.63;5092069;28;20126;-50
2022/06/01 09:23:14;;;;;;;8.88;4.85;;;;;;;29.83;39.11;98694.38;5092194;28;20031;-50
2022/06/01 09:25:50;;;;;;;12.07;5.60;;;;;;;29.60;39.58;98693.84;5090883;28;20034;-50
2022/06/01 09:28:19;;;;;;;14.63;5.72;;;;;;;29.18;40.43;98694.50;5092058;28;20091;-50
2022/06/01 09:30:55;;;;;;;15.52;5.63;;;;;;;28.79;40.89;98693.63;5092061;28;20028;-49
2022/06/01 09:33:33;;;;;;;9.38;4.90;;;;;;;28.27;41.68;98694.44;5091803;28;20024;-49
2022/06/01 09:36:22;;;;;;;12.50;5.57;;;;;;;27.82;42.73;98705.44;5092007;28;20074;-49
2022/06/01 09:38:56;;;;;;;9.95;5.07;;;;;;;27.71;43.30;98696.09;5092057;28;20026;-50
2022/06/01 09:41:36;;;;;;;14.80;5.82;;;;;;;27.74;43.09;98694.66;5092041;28;20031;-51
2022/06/01 09:44:05;;;;;;;15.20;6.03;;;;;;;27.78;42.74;98695.63;5091996;28;20028;-50
2022/06/01 09:46:40;;;;;;;10.23;5.75;;;;;;;27.73;42.68;98693.03;5091887;28;20031;-50
2022/06/01 09:49:27;;;;;;;12.40;6.38;;;;;;;27.32;43.09;98683.41;5091855;28;20448;-51
2022/06/01 09:52:02;;;;;;;17.70;7.38;;;;;;;26.89;44.12;98696.31;5091848;28;20063;-50
2022/06/01 09:54:34;;;;;;;15.90;6.13;;;;;;;26.68;44.63;98695.22;5092321;28;20020;-49
2022/06/01 09:57:23;;;;;;;12.30;6.63;;;;;;;26.29;45.40;98685.91;5095875;28;20103;-49
2022/06/01 10:08:23;;;;;;;22.88;10.18;;;;;;;25.94;47.23;98688.28;5096064;28;20043;-50
2022/06/01 10:11:08;;;;;;;21.42;7.45;;;;;;;25.84;47.57;98688.47;5095722;28;20020;-51
2022/06/01 10:13:48;;;;;;;25.08;8.48;;;;;;;26.01;53.38;98706.69;5094406;28;20034;-50
2022/06/01 10:16:35;;;;;;;11.77;8.90;;;;;;;25.54;52.33;98706.00;5094258;28;20065;-50
2022/06/01 10:19:03;;;;;;;10.63;9.32;;;;;;;24.66;54.49;98701.31;5085069;28;20090;-49
2022/06/01 10:22:00;;;;;;;19.05;9.35;;;;;;;23.96;57.22;98716.22;5095522;28;20077;-49
2022/06/01 10:24:51;;;;;;;15.63;9.13;;;;;;;23.29;59.17;98733.00;5094204;28;20028;-50
2022/06/01 10:27:21;;;;;;;16.27;9.73;;;;;;;22.76;61.58;98745.47;5095472;28;20393;-49
2022/06/01 10:30:04;;;;;;;17.38;9.50;;;;;;;22.37;63.01;98743.59;5095440;28;20032;-49
2022/06/01 10:32:39;;;;;;;28.33;11.90;;;;;;;22.06;65.08;98738.38;5095377;28;20543;-49
2022/06/01 10:35:31;;;;;;;25.65;11.63;;;;;;;21.92;66.23;98730.16;5094995;28;20551;-50
2022/06/01 10:38:10;;;;;;;124.45;113.57;;;;;;;21.80;69.49;98735.00;5092028;28;20387;-50
2022/06/01 10:41:21;;;;;;;446.60;347.48;;;;;;;22.05;71.22;98732.22;5095182;28;20032;-50
2022/06/01 10:44:30;;;;;;;272.42;221.02;;;;;;;22.19;70.80;98716.38;5075771;28;20044;-50
2022/06/01 10:47:18;;;;;;;224.40;195.52;;;;;;;22.37;71.39;98706.16;5060594;28;20118;-50
2022/06/01 10:50:00;;;;;;;42.50;21.25;;;;;;;22.69;70.91;98702.97;5095062;28;20024;-48
2022/06/01 10:52:45;;;;;;;68.40;61.17;;;;;;;23.27;69.64;98700.34;5094927;28;20032;-50
2022/06/01 10:55:31;;;;;;;36.17;21.25;;;;;;;24.10;68.51;98711.72;5094934;28;20020;-49
2022/06/01 10:57:59;;;;;;;21.58;16.30;;;;;;;24.55;65.48;98729.38;5093498;28;20043;-50
2022/06/01 11:00:50;;;;;;;29.80;16.48;;;;;;;24.62;64.86;98730.63;5094840;28;20031;-50
2022/06/01 11:03:21;;;;;;;28.42;18.63;;;;;;;24.48;64.11;98733.22;5094802;28;20024;-50
2022/06/01 11:05:56;;;;;;;16.25;11.32;;;;;;;24.32;63.39;98723.78;5093086;28;20612;-51
2022/06/01 11:08:58;;;;;;;14.65;9.85;;;;;;;24.26;63.98;98715.00;5094264;28;20024;-51
2022/06/01 11:11:37;;;;;;;15.75;9.80;;;;;;;24.40;63.71;98723.13;5094593;28;20032;-50
2022/06/01 11:14:20;;;;;;;11.10;8.80;;;;;;;24.85;62.04;98715.50;5093201;28;20069;-50
2022/06/01 11:16:53;;;;;;;12.25;9.20;;;;;;;25.14;61.07;98717.16;5094463;28;20024;-50
2022/06/01 11:19:44;;;;;;;12.98;8.70;;;;;;;25.48;59.67;98718.75;5094496;28;20032;-50
2022/06/01 11:22:16;;;;;;;9.10;8.05;;;;;;;25.60;58.58;98719.03;5094446;28;20036;-50
2022/06/01 11:24:49;;;;;;;13.85;7.55;;;;;;;25.73;58.53;98713.97;5094392;28;20024;-50
2022/06/01 11:27:27;;;;;;;16.73;7.97;;;;;;;26.02;57.54;98709.09;5094267;28;20421;-49
2022/06/01 11:30:17;;;;;;;12.48;7.93;;;;;;;26.40;56.71;98691.81;5093004;28;20039;-50
2022/06/01 11:33:01;;;;;;;22.85;10.20;;;;;;;26.41;54.79;98683.47;5094235;28;20520;-49
2022/06/01 11:35:43;;;;;;;14.27;8.25;;;;;;;26.37;55.84;98685.16;5093952;28;20060;-49
2022/06/01 11:38:14;;;;;;;12.88;6.55;;;;;;;26.32;54.25;98679.91;5094022;28;20069;-51
2022/06/01 11:41:03;;;;;;;8.18;3.80;;;;;;;25.99;52.23;98677.41;5094051;28;20105;-50
2022/06/01 11:43:36;;;;;;;11.93;3.90;;;;;;;26.02;49.92;98687.56;5094026;28;20559;-50
2022/06/01 11:46:14;;;;;;;9.05;3.53;;;;;;;26.08;49.47;98680.19;5092652;28;20028;-50
2022/06/01 11:48:56;;;;;;;8.23;4.10;;;;;;;26.16;48.75;98670.56;5093962;28;20024;-49
2022/06/01 11:51:37;;;;;;;11.32;3.00;;;;;;;26.39;48.56;98661.44;5092547;28;20028;-49
2022/06/01 11:54:33;;;;;;;8.35;3.53;;;;;;;26.52;48.58;98654.41;5093821;28;20607;-49
2022/06/01 11:56:58;;;;;;;21.98;5.93;;;;;;;26.94;46.75;98648.81;5093705;28;20074;-49
2022/06/01 11:59:27;;;;;;;332.98;100.00;;;;;;;27.09;53.20;98643.81;5092297;28;20028;-49
2022/06/01 12:02:04;;;;;;;11.35;4.65;;;;;;;27.51;49.04;98648.94;5093566;28;20032;-49
2022/06/01 12:04:50;;;;;;;6.88;3.60;;;;;;;27.80;43.78;98651.03;5092268;28;20031;-49
2022/06/01 12:07:47;;;;;;;9.52;4.70;;;;;;;28.42;42.36;98652.66;5093525;28;20118;-49
2022/06/01 12:10:24;;;;;;;9.38;3.83;;;;;;;28.92;39.13;98637.03;5084248;28;20085;-51